Time;durP1;ratioP1;P1;durP2;ratioP2;P2;SDS_P1;SDS_P2;PMS_P1;PMS_P2;Temp;Humidity;BMP_temperature;BMP_pressure;BME280_temperature;BME280_humidity;BME280_pressure;Samples;Min_cycle;Max_cycle;Signal;HPM_P1;HPM_P2
2023/04/04 00:00:17;;;;;;;9.57;3.92;;;;;;;7.80;91.67;100327.81;6178701;23;20013;-87
2023/04/04 00:02:45;;;;;;;15.63;3.80;;;;;;;7.70;92.34;100342.88;6198399;23;20103;-90
2023/04/04 00:05:10;;;;;;;10.68;3.60;;;;;;;7.98;91.94;100342.84;6171984;23;20021;-92
2023/04/04 00:07:36;;;;;;;14.40;4.15;;;;;;;7.78;92.73;100345.63;6193369;23;20044;-92
2023/04/04 00:10:02;;;;;;;9.63;3.85;;;;;;;7.80;93.16;100348.09;6169612;23;20005;-88
2023/04/04 00:12:30;;;;;;;14.02;4.30;;;;;;;7.65;95.95;100342.50;6173580;23;20009;-88
2023/04/04 00:14:56;;;;;;;9.05;4.13;;;;;;;7.61;99.59;100348.19;6195887;23;20009;-88
2023/04/04 00:17:25;;;;;;;13.02;4.70;;;;;;;7.53;100.00;100351.56;6197780;23;20013;-91
2023/04/04 00:19:58;;;;;;;9.70;4.93;;;;;;;7.61;100.00;100348.19;6187435;23;20021;-91
2023/04/04 00:25:08;;;;;;;11.50;4.50;;;;;;;7.46;100.00;100345.22;6232264;22;20335;-90
2023/04/04 00:27:34;;;;;;;11.05;4.35;;;;;;;7.33;100.00;100351.78;6199403;23;20017;-89
2023/04/04 00:29:59;;;;;;;9.77;4.07;;;;;;;7.07;100.00;100344.56;6174805;23;20056;-89
2023/04/04 00:32:25;;;;;;;12.63;4.38;;;;;;;7.17;100.00;100349.78;6199128;23;20020;-89
2023/04/04 00:34:52;;;;;;;12.45;3.90;;;;;;;7.14;100.00;100334.25;6229013;22;20027;-92
2023/04/04 00:37:20;;;;;;;16.60;5.15;;;;;;;7.05;100.00;100345.69;6205605;23;20059;-90
2023/04/04 00:39:55;;;;;;;11.02;4.20;;;;;;;7.23;100.00;100346.56;6205459;23;20027;-90
2023/04/04 00:42:21;;;;;;;10.23;3.90;;;;;;;6.97;100.00;100340.28;6201273;23;20009;-90
2023/04/04 00:44:53;;;;;;;14.13;4.35;;;;;;;6.91;100.00;100354.03;6175812;23;20428;-91
2023/04/04 00:47:24;;;;;;;7.70;3.87;;;;;;;6.79;100.00;100355.19;6227283;23;20004;-92
2023/04/04 00:49:51;;;;;;;12.95;4.00;;;;;;;6.93;100.00;100341.53;6175979;23;20019;-89
2023/04/04 00:52:26;;;;;;;8.38;4.65;;;;;;;6.75;100.00;100344.94;6197748;23;20040;-91
2023/04/04 00:54:56;;;;;;;5.63;3.85;;;;;;;6.66;100.00;100356.28;6205621;23;20076;-91
2023/04/04 00:57:23;;;;;;;10.23;4.43;;;;;;;6.67;100.00;100352.69;6183112;23;20040;-90
2023/04/04 00:59:56;;;;;;;10.38;4.55;;;;;;;6.60;100.00;100356.03;6240957;22;20052;-89
2023/04/04 01:02:26;;;;;;;13.35;4.90;;;;;;;6.46;100.00;100349.41;6216073;22;20423;-87
2023/04/04 01:04:55;;;;;;;10.70;4.35;;;;;;;6.38;100.00;100341.38;6233670;23;20009;-90
2023/04/04 01:07:21;;;;;;;11.13;4.93;;;;;;;6.41;100.00;100340.25;6203974;23;20087;-89
2023/04/04 01:09:49;;;;;;;16.23;5.30;;;;;;;6.46;100.00;100343.31;6197624;23;20028;-91
2023/04/04 01:16:02;;;;;;;8.80;5.03;;;;;;;6.48;100.00;100341.38;6239318;23;20036;-90
2023/04/04 01:18:31;;;;;;;15.43;4.90;;;;;;;6.40;100.00;100328.91;6223654;23;20091;-91
2023/04/04 01:21:01;;;;;;;10.93;5.43;;;;;;;6.23;100.00;100337.50;6200223;23;20008;-90
2023/04/04 01:23:49;;;;;;;11.60;5.32;;;;;;;6.19;100.00;100334.34;6200688;23;20013;-87
2023/04/04 01:26:16;;;;;;;9.18;4.88;;;;;;;6.13;100.00;100337.50;6198543;23;20012;-85
2023/04/04 01:28:48;;;;;;;10.25;6.05;;;;;;;6.07;100.00;100342.47;6227660;23;20029;-87
2023/04/04 01:31:20;;;;;;;10.13;5.35;;;;;;;6.30;100.00;100343.84;6226279;23;20309;-91
2023/04/04 01:33:57;;;;;;;13.38;6.18;;;;;;;6.14;100.00;100338.31;6200107;23;20021;-89
2023/04/04 01:36:46;;;;;;;12.50;5.35;;;;;;;6.07;100.00;100347.72;6233820;23;20012;-87
2023/04/04 01:39:27;;;;;;;13.32;5.93;;;;;;;6.04;100.00;100342.75;6200963;23;20017;-89
2023/04/04 01:41:55;;;;;;;14.63;5.28;;;;;;;6.16;100.00;100341.66;6227637;23;20054;-88
2023/04/04 01:44:22;;;;;;;14.60;5.30;;;;;;;6.01;100.00;100337.75;6202905;23;20013;-90
2023/04/04 01:46:54;;;;;;;8.45;5.35;;;;;;;6.01;100.00;100340.41;6204337;23;20016;-92
2023/04/04 01:49:23;;;;;;;12.50;5.90;;;;;;;6.04;100.00;100338.31;6202342;23;20076;-86
2023/04/04 01:52:19;;;;;;;12.27;5.47;;;;;;;6.18;100.00;100340.56;6203313;23;20020;-86
2023/04/04 01:54:45;;;;;;;12.15;5.30;;;;;;;6.22;100.00;100341.94;6232044;23;20012;-89
2023/04/04 01:57:11;;;;;;;15.07;5.43;;;;;;;6.22;100.00;100341.09;6233945;23;20032;-92
2023/04/04 01:59:36;;;;;;;9.57;5.53;;;;;;;6.11;100.00;100342.06;6233846;23;20012;-87
2023/04/04 02:02:05;;;;;;;13.48;6.07;;;;;;;6.13;100.00;100339.31;6207037;23;20032;-91
2023/04/04 02:04:30;;;;;;;12.77;6.03;;;;;;;6.07;100.00;100340.69;6172273;23;20020;-89
2023/04/04 02:06:57;;;;;;;12.77;5.45;;;;;;;6.07;100.00;100345.09;6166875;23;20017;-86
2023/04/04 02:09:23;;;;;;;10.25;5.10;;;;;;;5.99;100.00;100335.28;6165213;23;20009;-86
2023/04/04 02:11:49;;;;;;;8.52;5.03;;;;;;;5.91;100.00;100331.66;6167013;23;20040;-87
2023/04/04 02:14:16;;;;;;;13.30;5.40;;;;;;;5.76;100.00;100327.75;6164094;23;20025;-89
2023/04/04 02:16:42;;;;;;;15.57;5.35;;;;;;;5.77;100.00;100326.78;6161070;23;20002;-91
2023/04/04 02:19:09;;;;;;;15.95;5.40;;;;;;;5.80;100.00;100326.50;6160929;23;20009;-91
2023/04/04 02:21:35;;;;;;;15.10;5.05;;;;;;;5.79;100.00;100328.31;6158913;23;20010;-89
2023/04/04 02:24:01;;;;;;;10.07;4.97;;;;;;;5.77;100.00;100326.78;6158732;23;20369;-91
2023/04/04 02:26:26;;;;;;;9.20;5.50;;;;;;;5.72;100.00;100330.66;6159068;23;20044;-86
2023/04/04 02:28:52;;;;;;;12.18;6.00;;;;;;;5.72;100.00;100333.28;6157658;23;20006;-88
2023/04/04 02:31:17;;;;;;;15.02;5.88;;;;;;;5.64;100.00;100338.38;6158413;23;20009;-92
2023/04/04 02:33:43;;;;;;;9.07;5.32;;;;;;;5.74;100.00;100327.88;6155927;23;20037;-90
2023/04/04 02:36:09;;;;;;;10.32;5.75;;;;;;;5.64;100.00;100338.38;6157501;23;20006;-86
2023/04/04 02:38:35;;;;;;;13.88;4.75;;;;;;;5.59;100.00;100337.13;6172365;23;20048;-87
2023/04/04 02:41:24;;;;;;;8.65;5.00;;;;;;;5.54;100.00;100334.88;6220374;23;20462;-85
2023/04/04 02:43:53;;;;;;;13.13;4.82;;;;;;;5.38;100.00;100344.25;6177230;23;20020;-86
2023/04/04 02:46:18;;;;;;;9.65;4.50;;;;;;;5.36;100.00;100339.13;6203865;23;20028;-90
2023/04/04 02:48:44;;;;;;;10.43;4.63;;;;;;;5.30;100.00;100337.03;6202283;23;20009;-87
2023/04/04 02:51:10;;;;;;;8.27;4.47;;;;;;;5.29;100.00;100340.63;6205340;23;20013;-88
2023/04/04 02:53:45;;;;;;;11.35;4.50;;;;;;;5.27;100.00;100337.28;6206679;23;20020;-86
2023/04/04 02:56:31;;;;;;;15.27;5.03;;;;;;;5.31;100.00;100338.69;6214563;23;20020;-87
2023/04/04 02:59:20;;;;;;;12.38;4.57;;;;;;;5.31;100.00;100337.84;6202124;23;20017;-86
2023/04/04 03:01:46;;;;;;;15.55;4.70;;;;;;;5.20;100.00;100341.44;6177725;23;20020;-89
2023/04/04 03:04:12;;;;;;;10.30;4.55;;;;;;;5.13;100.00;100341.13;6178765;23;20005;-86
2023/04/04 03:06:58;;;;;;;11.85;4.57;;;;;;;5.26;100.00;100335.63;6202679;23;20062;-88
2023/04/04 03:09:43;;;;;;;12.80;4.53;;;;;;;5.24;100.00;100342.00;6192980;23;20009;-89
2023/04/04 03:12:10;;;;;;;13.07;4.80;;;;;;;5.21;100.00;100343.06;6164147;23;20024;-91
2023/04/04 03:14:36;;;;;;;16.15;4.20;;;;;;;5.19;100.00;100337.13;6189676;23;20096;-90
2023/04/04 03:17:02;;;;;;;8.10;4.63;;;;;;;5.24;100.00;100345.44;6162408;23;20005;-89
2023/04/04 03:19:28;;;;;;;11.77;4.78;;;;;;;5.15;100.00;100351.47;6189146;23;20009;-91
2023/04/04 03:21:54;;;;;;;13.43;5.05;;;;;;;5.22;100.00;100336.88;6162298;23;20013;-92
2023/04/04 03:24:19;;;;;;;13.45;4.32;;;;;;;5.16;100.00;100343.50;6189307;23;20069;-92
2023/04/04 03:26:45;;;;;;;11.20;4.28;;;;;;;5.18;100.00;100343.34;6162950;23;20806;-89
2023/04/04 03:29:11;;;;;;;7.85;4.15;;;;;;;5.15;100.00;100343.59;6162101;23;20013;-87
2023/04/04 03:31:37;;;;;;;10.93;3.78;;;;;;;5.19;100.00;100345.84;6163574;23;20343;-90
2023/04/04 03:34:03;;;;;;;16.38;4.65;;;;;;;5.16;100.00;100345.28;6138010;23;20348;-91
2023/04/04 03:36:29;;;;;;;11.93;4.38;;;;;;;5.21;100.00;100351.78;6189202;23;20119;-94
2023/04/04 03:38:55;;;;;;;17.52;5.00;;;;;;;5.17;100.00;100360.88;6189207;23;20484;-89
2023/04/04 03:41:23;;;;;;;19.80;4.85;;;;;;;5.24;100.00;100358.56;6189212;23;20001;-90
2023/04/04 03:43:49;;;;;;;11.43;4.05;;;;;;;5.22;100.00;100365.75;6190429;23;20379;-89
2023/04/04 03:46:15;;;;;;;12.55;4.60;;;;;;;5.12;100.00;100370.13;6164133;23;20020;-94
2023/04/04 03:48:43;;;;;;;11.57;4.72;;;;;;;5.12;100.00;100364.88;6170339;23;20048;-87
2023/04/04 03:51:09;;;;;;;11.20;4.43;;;;;;;5.20;100.00;100372.97;6177270;23;20037;-87
2023/04/04 03:53:36;;;;;;;12.27;4.00;;;;;;;5.26;99.19;100375.06;6181234;23;20016;-85
2023/04/04 03:56:01;;;;;;;15.85;3.88;;;;;;;5.28;96.22;100374.91;6152251;23;20017;-92
2023/04/04 03:58:27;;;;;;;14.00;4.35;;;;;;;5.30;95.36;100376.47;6191405;23;20041;-91
2023/04/04 04:00:53;;;;;;;10.70;3.72;;;;;;;5.43;93.35;100366.56;6190910;23;20013;-90
2023/04/04 04:03:20;;;;;;;9.10;3.72;;;;;;;5.36;92.77;100368.03;6190920;23;20128;-92
2023/04/04 04:05:46;;;;;;;13.18;4.22;;;;;;;5.20;93.84;100370.31;6165380;23;20029;-89
2023/04/04 04:08:12;;;;;;;13.18;3.90;;;;;;;5.16;94.99;100372.38;6166669;23;20448;-91
2023/04/04 04:10:38;;;;;;;12.02;3.33;;;;;;;5.29;93.77;100372.16;6172519;23;20451;-87
2023/04/04 04:13:04;;;;;;;12.20;4.03;;;;;;;5.20;93.91;100378.22;6215992;23;20072;-88
2023/04/04 04:15:31;;;;;;;6.90;3.75;;;;;;;5.23;94.46;100375.31;6198955;23;20008;-89
2023/04/04 04:17:58;;;;;;;13.32;4.07;;;;;;;5.18;95.08;100382.75;6227108;23;20060;-88
2023/04/04 04:20:29;;;;;;;11.00;3.90;;;;;;;5.17;96.50;100378.47;6224418;23;20013;-88
2023/04/04 04:22:55;;;;;;;12.18;3.92;;;;;;;5.18;96.35;100388.00;6202406;23;20071;-86
2023/04/04 04:25:24;;;;;;;10.82;4.18;;;;;;;5.16;96.03;100384.69;6224117;23;20016;-91
2023/04/04 04:28:11;;;;;;;11.30;4.47;;;;;;;5.29;95.18;100398.44;6199353;23;20375;-88
2023/04/04 04:30:36;;;;;;;8.10;4.00;;;;;;;5.23;95.80;100388.47;6198819;23;20019;-91
2023/04/04 04:33:05;;;;;;;20.08;4.10;;;;;;;5.17;95.60;100388.97;6221315;23;20016;-90
2023/04/04 04:35:42;;;;;;;10.95;4.15;;;;;;;5.27;92.26;100395.09;6202048;23;20027;-92
2023/04/04 04:38:08;;;;;;;15.48;4.22;;;;;;;5.29;90.81;100394.97;6200468;23;19996;-92
2023/04/04 04:40:34;;;;;;;13.00;4.55;;;;;;;5.39;89.92;100398.47;6191523;23;20017;-90
2023/04/04 04:43:08;;;;;;;13.02;4.63;;;;;;;5.44;88.74;100402.34;6193551;23;20013;-88
2023/04/04 04:45:33;;;;;;;9.13;4.05;;;;;;;5.48;88.24;100395.88;6214077;23;20029;-91
2023/04/04 04:48:05;;;;;;;9.45;4.18;;;;;;;5.42;86.69;100404.31;6163493;23;20448;-88
2023/04/04 04:50:36;;;;;;;6.40;3.72;;;;;;;5.28;87.76;100406.44;6145773;23;20012;-90
2023/04/04 04:53:02;;;;;;;17.02;3.92;;;;;;;5.40;85.48;100400.16;6169883;23;20016;-90
2023/04/04 04:55:27;;;;;;;17.13;4.50;;;;;;;5.29;85.17;100403.69;6168615;23;20013;-88
2023/04/04 04:58:05;;;;;;;16.05;4.88;;;;;;;5.43;83.74;100408.59;6161888;23;20036;-88
2023/04/04 05:00:31;;;;;;;12.65;3.97;;;;;;;5.36;82.55;100415.34;6164695;23;20013;-92
2023/04/04 05:03:02;;;;;;;12.73;3.60;;;;;;;5.42;81.52;100414.81;6172615;23;20471;-91
2023/04/04 05:05:36;;;;;;;13.82;3.92;;;;;;;5.45;80.55;100422.44;6172632;23;20044;-89
2023/04/04 05:08:07;;;;;;;9.82;4.18;;;;;;;5.19;83.33;100413.31;6170934;23;20032;-86
2023/04/04 05:10:37;;;;;;;11.07;3.92;;;;;;;5.33;82.66;100410.34;6164254;23;20013;-88
2023/04/04 05:13:04;;;;;;;21.20;4.53;;;;;;;5.33;82.22;100415.59;6199500;23;20020;-88
2023/04/04 05:15:38;;;;;;;8.77;3.85;;;;;;;5.99;78.38;100421.25;6199075;23;20032;-88
2023/04/04 05:18:05;;;;;;;17.42;4.15;;;;;;;5.97;76.68;100415.28;6201152;23;20059;-86
2023/04/04 05:21:10;;;;;;;14.32;4.20;;;;;;;6.24;76.66;100418.09;6212643;23;20025;-88
2023/04/04 05:23:44;;;;;;;19.20;3.97;;;;;;;6.68;71.30;100422.00;6178601;23;20035;-89
2023/04/04 05:26:23;;;;;;;15.40;4.38;;;;;;;6.61;72.68;100421.72;6250086;23;20054;-88
2023/04/04 05:28:58;;;;;;;18.73;4.30;;;;;;;7.00;69.66;100429.56;6232525;23;20023;-91
2023/04/04 05:31:26;;;;;;;15.50;3.72;;;;;;;7.37;69.37;100427.00;6229400;23;20423;-89
2023/04/04 05:33:52;;;;;;;21.27;5.00;;;;;;;7.38;68.02;100426.88;6229065;23;20010;-89
2023/04/04 05:36:28;;;;;;;12.85;4.13;;;;;;;7.23;69.41;100423.00;6225831;23;20012;-89
2023/04/04 05:38:59;;;;;;;18.42;4.80;;;;;;;7.12;68.89;100436.38;6207228;23;20008;-89
2023/04/04 05:41:36;;;;;;;9.25;4.30;;;;;;;7.63;66.87;100436.75;6234463;23;20012;-90
2023/04/04 05:44:10;;;;;;;14.18;5.03;;;;;;;7.87;64.78;100438.03;6256220;23;20055;-90
2023/04/04 05:46:39;;;;;;;10.20;3.67;;;;;;;7.91;64.38;100436.75;6231540;23;20064;-91
2023/04/04 05:49:09;;;;;;;16.48;4.45;;;;;;;9.08;60.63;100444.53;6226706;23;20230;-89
2023/04/04 05:51:41;;;;;;;13.55;4.43;;;;;;;8.26;61.59;100452.66;6224080;23;20015;-85
2023/04/04 05:54:13;;;;;;;13.13;3.97;;;;;;;8.42;61.69;100441.50;6231428;23;20011;-89
2023/04/04 05:56:40;;;;;;;16.50;4.20;;;;;;;8.09;62.88;100446.38;6233063;23;20008;-85
2023/04/04 05:59:17;;;;;;;9.23;3.70;;;;;;;8.63;61.43;100453.41;6244515;22;20121;-89
2023/04/04 06:01:53;;;;;;;21.52;4.35;;;;;;;9.44;56.56;100459.31;6232844;23;20009;-90
2023/04/04 06:04:25;;;;;;;17.13;4.15;;;;;;;10.25;52.82;100467.63;6227308;23;20096;-88
2023/04/04 06:06:57;;;;;;;18.70;4.32;;;;;;;9.77;52.69;100476.19;6227099;23;20016;-89
2023/04/04 06:09:22;;;;;;;17.15;4.25;;;;;;;9.82;53.23;100469.44;6195048;23;20059;-90
2023/04/04 06:12:09;;;;;;;16.40;3.53;;;;;;;10.37;50.93;100469.81;6195387;23;20124;-92
2023/04/04 06:14:36;;;;;;;11.98;3.65;;;;;;;10.44;49.77;100472.63;6200121;23;20013;-89
2023/04/04 06:17:06;;;;;;;18.60;4.05;;;;;;;10.45;49.53;100471.66;6198655;23;20024;-88
2023/04/04 06:19:31;;;;;;;24.63;4.72;;;;;;;10.01;50.81;100459.59;6189553;23;20424;-84
2023/04/04 06:21:57;;;;;;;14.65;3.50;;;;;;;10.64;49.43;100479.31;6191430;23;20136;-91
2023/04/04 06:24:24;;;;;;;10.95;4.05;;;;;;;10.81;47.24;100485.47;6166451;23;20439;-85
2023/04/04 06:26:50;;;;;;;7.22;3.50;;;;;;;10.31;48.79;100470.47;6187954;23;20045;-88
2023/04/04 06:29:18;;;;;;;17.05;4.35;;;;;;;9.96;50.17;100480.41;6199064;23;20017;-86
2023/04/04 06:31:44;;;;;;;14.68;4.10;;;;;;;10.34;49.47;100485.22;6201819;23;20009;-92
2023/04/04 06:34:20;;;;;;;14.88;3.67;;;;;;;10.95;48.64;100483.97;6201923;23;19997;-90
2023/04/04 06:36:56;;;;;;;16.45;3.47;;;;;;;11.05;46.17;100489.94;6200414;23;20055;-87
2023/04/04 06:39:26;;;;;;;12.18;3.60;;;;;;;10.97;46.27;100497.91;6192250;23;20028;-89
2023/04/04 06:41:54;;;;;;;15.80;4.15;;;;;;;10.59;48.54;100500.19;6191015;23;20009;-88
2023/04/04 06:44:25;;;;;;;17.67;3.78;;;;;;;10.64;48.25;100486.47;6170923;23;20097;-86
2023/04/04 06:46:50;;;;;;;10.82;3.53;;;;;;;10.98;46.16;100499.56;6202653;23;20009;-87
2023/04/04 06:49:16;;;;;;;12.52;3.38;;;;;;;10.92;47.13;100493.09;6198968;23;20013;-90
2023/04/04 06:51:42;;;;;;;17.60;3.20;;;;;;;10.80;46.89;100503.19;6198655;23;20016;-89
2023/04/04 06:54:07;;;;;;;22.60;4.13;;;;;;;11.11;46.06;100510.50;6195198;23;20384;-88
2023/04/04 06:56:33;;;;;;;23.05;3.83;;;;;;;11.83;44.31;100513.09;6193791;23;20037;-87
2023/04/04 06:58:59;;;;;;;8.45;2.97;;;;;;;11.64;44.71;100510.78;6192590;23;20029;-90
2023/04/04 07:01:25;;;;;;;9.55;2.88;;;;;;;12.21;42.75;100507.97;6199111;23;20009;-89
2023/04/04 07:03:57;;;;;;;14.82;3.03;;;;;;;12.50;41.69;100502.84;6197996;23;20016;-88
2023/04/04 07:06:25;;;;;;;16.90;2.72;;;;;;;11.87;42.20;100514.41;6199735;23;20013;-88
2023/04/04 07:09:11;;;;;;;8.50;2.55;;;;;;;11.48;41.52;100512.63;6204162;23;20064;-87
2023/04/04 07:11:37;;;;;;;8.52;3.00;;;;;;;11.99;40.23;100520.19;6202221;23;20013;-89
2023/04/04 07:14:06;;;;;;;9.32;2.17;;;;;;;11.71;39.95;100514.44;6224871;23;20000;-87
2023/04/04 07:16:31;;;;;;;9.50;2.30;;;;;;;11.52;40.31;100520.09;6199425;23;20104;-86
2023/04/04 07:19:23;;;;;;;9.23;2.47;;;;;;;11.50;41.22;100508.00;6225567;23;20031;-86
2023/04/04 07:21:49;;;;;;;19.13;3.83;;;;;;;11.75;40.62;100515.78;6225531;23;20408;-87
2023/04/04 07:24:17;;;;;;;14.90;3.10;;;;;;;13.09;38.03;100519.13;6224359;23;20008;-89
2023/04/04 07:26:43;;;;;;;11.18;2.55;;;;;;;11.85;40.02;100516.41;6225611;23;20005;-88
2023/04/04 07:29:08;;;;;;;13.32;2.67;;;;;;;11.98;38.78;100515.03;6226879;23;20060;-88
2023/04/04 07:31:40;;;;;;;10.40;2.58;;;;;;;12.32;37.60;100512.91;6229431;23;20008;-89
2023/04/04 07:34:06;;;;;;;8.75;2.25;;;;;;;12.38;37.30;100501.59;6226752;23;20008;-86
2023/04/04 07:36:32;;;;;;;5.97;2.67;;;;;;;12.14;37.14;100513.16;6226299;23;20047;-88
2023/04/04 07:38:58;;;;;;;11.50;2.72;;;;;;;12.18;36.89;100510.97;6227172;23;20004;-87
2023/04/04 07:41:24;;;;;;;13.73;2.80;;;;;;;12.39;36.93;100514.69;6227322;23;20015;-90
2023/04/04 07:43:51;;;;;;;6.03;2.00;;;;;;;12.32;36.52;100518.22;6225850;23;20072;-87
2023/04/04 07:46:20;;;;;;;5.53;2.72;;;;;;;12.09;36.78;100526.13;6226872;23;20016;-89
2023/04/04 07:48:45;;;;;;;6.05;2.05;;;;;;;11.33;36.50;100531.06;6226895;23;20012;-87
2023/04/04 07:51:11;;;;;;;8.80;2.97;;;;;;;11.67;36.40;100512.25;6203455;23;20052;-87
2023/04/04 07:53:37;;;;;;;9.77;2.05;;;;;;;12.57;34.44;100542.84;6221776;23;20016;-87
2023/04/04 07:56:05;;;;;;;14.90;2.58;;;;;;;11.76;35.94;100512.13;6236155;23;19981;-86
2023/04/04 07:58:34;;;;;;;17.13;1.90;;;;;;;12.20;35.04;100527.56;6237047;23;20009;-88
2023/04/04 08:01:02;;;;;;;4.50;2.13;;;;;;;12.05;34.93;100516.84;6203238;23;20023;-88
2023/04/04 08:03:28;;;;;;;10.20;2.08;;;;;;;12.46;33.83;100520.16;6207821;22;20032;-88
2023/04/04 08:05:57;;;;;;;8.32;2.28;;;;;;;13.40;33.37;100525.16;6240338;23;20013;-86
2023/04/04 08:08:53;;;;;;;5.60;2.17;;;;;;;12.75;33.45;100532.78;6229535;23;19997;-91
2023/04/04 08:11:23;;;;;;;11.02;2.25;;;;;;;12.46;34.15;100512.19;6225231;23;20019;-89
2023/04/04 08:13:49;;;;;;;15.93;2.55;;;;;;;12.57;34.14;100521.56;6223765;23;20032;-87
2023/04/04 08:16:15;;;;;;;7.45;1.98;;;;;;;12.48;32.83;100526.13;6227846;23;20004;-87
2023/04/04 08:18:43;;;;;;;5.43;1.98;;;;;;;12.47;32.34;100527.13;6223774;23;20084;-87
2023/04/04 08:21:09;;;;;;;8.50;1.90;;;;;;;12.50;32.50;100525.94;6228015;23;20507;-88
2023/04/04 08:23:53;;;;;;;7.63;2.05;;;;;;;13.05;31.55;100541.72;6226717;23;20009;-91
2023/04/04 08:26:20;;;;;;;3.78;1.95;;;;;;;12.56;31.50;100522.59;6236948;23;20012;-90
2023/04/04 08:28:47;;;;;;;5.35;2.03;;;;;;;12.40;32.24;100537.63;6209690;23;19997;-87
2023/04/04 08:31:14;;;;;;;13.00;2.22;;;;;;;12.72;31.26;100512.69;6210832;23;20013;-87
2023/04/04 08:33:44;;;;;;;10.55;1.77;;;;;;;12.98;30.69;100520.31;6231055;23;20020;-90
2023/04/04 08:36:21;;;;;;;6.85;1.77;;;;;;;13.14;30.64;100514.06;6243438;23;20027;-89
2023/04/04 08:38:51;;;;;;;4.57;2.10;;;;;;;12.78;31.42;100529.78;6219351;23;20024;-90
2023/04/04 08:41:34;;;;;;;7.00;1.83;;;;;;;13.20;30.70;100511.53;6243334;23;20020;-90
2023/04/04 08:44:19;;;;;;;5.90;2.13;;;;;;;13.42;30.20;100523.97;6243070;23;20019;-90
2023/04/04 08:47:18;;;;;;;12.95;2.22;;;;;;;12.61;31.29;100515.75;6190674;23;20072;-87
2023/04/04 08:49:46;;;;;;;4.05;1.63;;;;;;;13.40;30.51;100530.47;6199140;23;20016;-90
2023/04/04 08:52:23;;;;;;;5.78;2.03;;;;;;;13.66;28.82;100530.06;6167539;23;20013;-90
2023/04/04 08:54:51;;;;;;;6.10;2.17;;;;;;;13.72;28.75;100540.03;6144657;23;20340;-91
2023/04/04 08:57:17;;;;;;;4.80;2.05;;;;;;;12.49;30.95;100557.03;6174204;23;20005;-90
2023/04/04 08:59:49;;;;;;;4.15;1.67;;;;;;;12.67;31.33;100520.34;6166435;23;20080;-91
2023/04/04 09:02:39;;;;;;;9.82;2.30;;;;;;;12.78;31.31;100525.28;6118028;23;20021;-91
2023/04/04 09:05:30;;;;;;;5.15;1.60;;;;;;;12.51;30.55;100533.75;6143651;23;20326;-92
2023/04/04 09:08:08;;;;;;;8.20;1.77;;;;;;;12.68;30.38;100523.84;6176249;23;20020;-90
2023/04/04 09:10:37;;;;;;;6.03;2.10;;;;;;;13.02;29.97;100512.81;6170724;23;20009;-90
2023/04/04 09:13:04;;;;;;;6.00;1.98;;;;;;;13.16;30.01;100517.38;6195994;23;20041;-92
2023/04/04 09:15:33;;;;;;;4.60;2.03;;;;;;;13.28;30.30;100515.97;6194484;23;20009;-91
2023/04/04 09:18:07;;;;;;;4.50;2.15;;;;;;;13.56;30.04;100543.66;6169940;23;20080;-93
2023/04/04 09:20:55;;;;;;;11.00;1.92;;;;;;;13.76;29.63;100515.47;6172396;23;20039;-91
2023/04/04 09:23:24;;;;;;;4.45;2.15;;;;;;;14.12;29.18;100534.22;6171853;23;20013;-91
2023/04/04 09:25:54;;;;;;;3.90;1.63;;;;;;;13.91;28.54;100540.31;6145272;23;20023;-90
2023/04/04 09:28:22;;;;;;;8.52;2.47;;;;;;;13.47;29.54;100528.75;6166977;23;20096;-89
2023/04/04 09:30:51;;;;;;;8.82;1.77;;;;;;;13.64;29.51;100524.94;6188801;23;20084;-84
2023/04/04 09:33:23;;;;;;;4.25;1.85;;;;;;;13.57;29.39;100537.31;6190734;23;20009;-83
2023/04/04 09:36:21;;;;;;;8.45;1.90;;;;;;;14.08;28.58;100519.63;6199623;23;20019;-87
2023/04/04 09:39:19;;;;;;;5.55;2.13;;;;;;;13.65;29.39;100521.28;6191320;23;20013;-87
2023/04/04 09:41:49;;;;;;;8.15;1.88;;;;;;;13.36;30.13;100523.84;6171901;23;20005;-86
2023/04/04 09:44:33;;;;;;;8.27;2.10;;;;;;;13.58;30.48;100549.63;6200982;23;20116;-87
2023/04/04 09:47:23;;;;;;;4.75;1.60;;;;;;;13.23;30.57;100524.47;6157083;23;20051;-88
2023/04/04 09:50:19;;;;;;;7.97;2.25;;;;;;;13.06;30.20;100527.44;6189409;23;20020;-89
2023/04/04 09:52:48;;;;;;;6.25;2.40;;;;;;;12.90;30.09;100531.84;6143579;23;20037;-87
2023/04/04 09:55:15;;;;;;;4.57;2.05;;;;;;;13.39;29.68;100528.81;6126664;23;20009;-87
2023/04/04 09:57:43;;;;;;;6.97;2.00;;;;;;;13.47;29.54;100536.75;6152375;23;20020;-88
2023/04/04 10:00:18;;;;;;;7.63;2.08;;;;;;;13.15;29.43;100527.22;6128540;23;20067;-88
2023/04/04 10:02:51;;;;;;;8.57;1.95;;;;;;;13.69;29.25;100535.84;6154670;23;20079;-88
2023/04/04 10:05:22;;;;;;;6.13;1.92;;;;;;;13.84;28.82;100544.72;6131742;23;20433;-90
2023/04/04 10:07:48;;;;;;;2.92;1.67;;;;;;;13.77;29.28;100538.44;6108373;23;20718;-88
2023/04/04 10:10:14;;;;;;;6.32;2.00;;;;;;;13.62;29.27;100521.59;6131031;23;20013;-89
2023/04/04 10:12:40;;;;;;;7.15;2.30;;;;;;;13.35;30.01;100520.41;6131140;23;20088;-85
2023/04/04 10:15:10;;;;;;;3.42;1.77;;;;;;;13.36;29.70;100535.34;6161351;23;20389;-89
2023/04/04 10:17:37;;;;;;;5.35;2.30;;;;;;;13.39;29.36;100537.63;6136608;23;20004;-90
2023/04/04 10:20:11;;;;;;;5.57;2.10;;;;;;;13.48;29.88;100522.44;6156937;23;20441;-91
2023/04/04 10:22:37;;;;;;;17.27;5.00;;;;;;;13.28;29.46;100538.09;6155027;23;20070;-88
2023/04/04 10:25:04;;;;;;;8.15;2.67;;;;;;;13.89;29.13;100530.81;6129518;23;20025;-87
2023/04/04 10:27:31;;;;;;;6.95;2.75;;;;;;;14.66;28.11;100526.72;6154186;23;20014;-88
2023/04/04 10:29:57;;;;;;;12.57;5.07;;;;;;;14.71;28.48;100520.84;6167912;23;20013;-86
2023/04/04 10:32:34;;;;;;;11.05;4.20;;;;;;;14.68;28.27;100524.69;6186838;23;20059;-88
2023/04/04 10:35:04;;;;;;;7.97;2.03;;;;;;;15.28;28.50;100528.81;6159903;23;20020;-86
2023/04/04 10:38:04;;;;;;;6.25;2.72;;;;;;;15.16;27.33;100546.34;6184833;23;20009;-88
2023/04/04 10:40:33;;;;;;;8.77;2.60;;;;;;;14.61;28.42;100526.47;6183569;23;20092;-89
2023/04/04 10:43:02;;;;;;;6.65;3.15;;;;;;;14.84;28.12;100529.81;6185219;23;20017;-87
2023/04/04 10:45:32;;;;;;;8.98;3.42;;;;;;;15.07;28.23;100532.28;6183978;23;20353;-88
2023/04/04 10:47:59;;;;;;;5.63;2.38;;;;;;;15.16;27.77;100546.34;6160422;23;20009;-89
2023/04/04 10:50:25;;;;;;;7.97;2.13;;;;;;;14.34;28.37;100524.50;6159728;23;20060;-85
2023/04/04 10:52:51;;;;;;;6.30;2.17;;;;;;;14.49;28.82;100511.97;6186419;23;20425;-86
2023/04/04 10:55:18;;;;;;;8.07;2.58;;;;;;;14.21;28.21;100535.81;6185727;23;20048;-88
2023/04/04 10:57:51;;;;;;;8.30;2.38;;;;;;;14.68;27.96;100515.88;6159555;23;20017;-86
2023/04/04 11:00:19;;;;;;;9.70;4.00;;;;;;;16.32;26.59;100530.53;6187024;23;20012;-87
2023/04/04 11:02:58;;;;;;;9.52;4.43;;;;;;;16.40;25.59;100533.03;6189065;23;20001;-88
2023/04/04 11:05:33;;;;;;;4.13;2.10;;;;;;;15.72;26.57;100516.00;6191770;23;20087;-88
2023/04/04 11:08:09;;;;;;;6.90;2.33;;;;;;;16.88;25.49;100510.56;6162819;23;20009;-88
2023/04/04 11:10:37;;;;;;;4.47;2.22;;;;;;;16.67;25.85;100508.03;6162744;23;20061;-86
2023/04/04 11:13:11;;;;;;;5.20;2.30;;;;;;;15.37;27.08;100516.94;6188293;23;20036;-86
2023/04/04 11:15:56;;;;;;;5.38;2.60;;;;;;;16.88;25.73;100510.56;6162926;23;20024;-86
2023/04/04 11:18:42;;;;;;;7.00;2.47;;;;;;;18.74;23.94;100518.94;6192775;23;20016;-85
2023/04/04 11:21:13;;;;;;;6.68;2.78;;;;;;;18.78;23.30;100509.44;6196255;23;20019;-85
2023/04/04 11:23:48;;;;;;;5.28;2.00;;;;;;;16.86;25.21;100509.97;6172535;23;20005;-86
2023/04/04 11:26:26;;;;;;;6.82;2.42;;;;;;;16.75;25.13;100521.25;6197433;23;20092;-89
2023/04/04 11:29:12;;;;;;;;;;;;;;;;;;;;;
2023/04/04 11:32:16;;;;;;;5.72;2.42;;;;;;;17.18;25.09;100507.50;6186043;23;19997;-80
2023/04/04 11:38:18;;;;;;;5.25;2.20;;;;;;;16.93;25.39;100502.78;6208952;23;20021;-82
2023/04/04 11:41:01;;;;;;;4.38;1.90;;;;;;;17.04;24.92;100490.59;6198601;23;20060;-83
2023/04/04 11:43:28;;;;;;;5.13;2.25;;;;;;;17.15;25.27;100491.84;6208370;23;20005;-82
2023/04/04 11:46:17;;;;;;;5.75;2.15;;;;;;;17.23;25.83;100483.63;6182253;23;20013;-84
2023/04/04 11:48:49;;;;;;;8.60;2.67;;;;;;;16.07;26.82;100489.28;6206453;23;20009;-83
2023/04/04 11:51:18;;;;;;;;;;;;;;;15.19;28.81;100468.53;6209220;23;20013;-82